KCPS

St Louis Downtown Airport

Cahokia/St Louis, Illinois, USA
METAR KCPS 230153Z 05003KT 10SM CLR 24/19 A3001 RMK AO2 SLP159 T02440189
Observed Flight Rules
May-23 @ 01:53 UTC (58 minutes ago) Visual Flight Rules
Wind Visibility Clouds
50° at 3 knots 10 miles
  • Clear skies
Temperatures Readings
Current 24°C / 75°F
Dewpoint 19°C / 66°F
Humidity 74%
Altimeter 30.01" Hg
Pressure 1015.9 hPa
Elevation 126
METAR KCPS 230153Z 05003KT 10SM CLR 24/19 A3001 RMK AO2 SLP159 T02440189
Observed Flight Rules
May-23 @ 01:53 UTC
(58 minutes ago)
VFR
Wind Visibility
50° at 3 knots 10 miles
Clouds
  • Clear skies
Temperature Dewpoint
24°C / 75°F 19°C / 66°F
Humidity Altimeter Pressure
74% 30.01" Hg 1015.9 hPa